Time;durP1;ratioP1;P1;durP2;ratioP2;P2;SDS_P1;SDS_P2;PMS_P1;PMS_P2;Temp;Humidity;BMP_temperature;BMP_pressure;BME280_temperature;BME280_humidity;BME280_pressure;Samples;Min_cycle;Max_cycle;Signal;HPM_P1;HPM_P2
2023/04/21 00:00:18;;;;;;;21.42;11.63;;;;;;;8.22;56.02;100697.36;1813326;79;25462;-63
2023/04/21 00:02:48;;;;;;;16.12;10.18;;;;;;;8.19;56.33;100703.31;1814190;79;25548;-63
2023/04/21 00:05:15;;;;;;;15.90;9.90;;;;;;;8.15;56.27;100698.20;1814307;79;26351;-64
2023/04/21 00:07:42;;;;;;;16.00;10.23;;;;;;;8.10;56.47;100690.72;1814370;79;25462;-63
2023/04/21 00:10:10;;;;;;;15.93;11.30;;;;;;;8.06;56.65;100694.52;1814303;79;27248;-63
2023/04/21 00:12:37;;;;;;;16.65;10.68;;;;;;;8.01;56.87;100691.88;1814209;79;25625;-63
2023/04/21 00:15:06;;;;;;;13.98;10.63;;;;;;;7.98;56.80;100691.08;1814319;79;25439;-63
2023/04/21 00:17:33;;;;;;;18.52;10.98;;;;;;;7.93;57.30;100689.78;1775400;80;25654;-63
2023/04/21 00:20:00;;;;;;;16.10;10.60;;;;;;;7.89;57.13;100696.82;1775370;80;25452;-63
2023/04/21 00:22:27;;;;;;;20.97;11.45;;;;;;;7.83;57.26;100693.34;1773586;80;27664;-63
2023/04/21 00:24:54;;;;;;;15.50;10.18;;;;;;;7.79;57.62;100695.00;1773344;80;25672;-63
2023/04/21 00:27:20;;;;;;;16.67;10.13;;;;;;;7.75;57.81;100698.80;1813947;79;25450;-63
2023/04/21 00:29:46;;;;;;;20.70;11.15;;;;;;;7.71;58.03;100695.59;1814100;79;25685;-63
2023/04/21 00:32:13;;;;;;;16.67;10.45;;;;;;;7.65;58.11;100694.83;1814334;79;25396;-63
2023/04/21 00:34:40;;;;;;;17.48;9.38;;;;;;;7.61;58.38;100697.27;1814346;79;27316;-63
2023/04/21 00:37:06;;;;;;;12.70;9.05;;;;;;;7.57;58.63;100692.72;1814179;79;25633;-63
2023/04/21 00:39:33;;;;;;;15.53;10.10;;;;;;;7.53;58.41;100684.40;1814190;79;25623;-63
2023/04/21 00:42:00;;;;;;;18.00;10.63;;;;;;;7.51;58.73;100691.13;1775237;80;26220;-63
2023/04/21 00:44:26;;;;;;;15.43;9.80;;;;;;;7.47;58.88;100692.23;1813532;79;25616;-63
2023/04/21 00:46:53;;;;;;;15.50;9.65;;;;;;;7.43;58.79;100685.25;1814057;79;27643;-63
2023/04/21 00:49:22;;;;;;;17.45;10.15;;;;;;;7.40;58.82;100685.80;1814083;79;25592;-63
2023/04/21 00:51:49;;;;;;;15.00;9.83;;;;;;;7.38;59.11;100689.32;1775529;80;25414;-63
2023/04/21 00:54:17;;;;;;;16.52;11.08;;;;;;;7.33;59.20;100688.00;1812991;79;25624;-63
2023/04/21 00:56:44;;;;;;;13.55;9.58;;;;;;;7.32;59.49;100685.06;1775241;80;25452;-63
2023/04/21 00:59:11;;;;;;;14.95;9.93;;;;;;;7.29;59.78;100685.06;1791133;78;27400;-63
2023/04/21 01:01:40;;;;;;;18.37;10.45;;;;;;;7.26;60.01;100683.47;1791536;79;25587;-63
2023/04/21 01:04:09;;;;;;;17.60;10.30;;;;;;;7.22;60.31;100682.40;1775461;80;25603;-63
2023/04/21 01:06:36;;;;;;;17.50;11.22;;;;;;;7.19;60.44;100678.39;1814189;79;26608;-63
2023/04/21 01:09:06;;;;;;;14.47;9.98;;;;;;;7.15;60.62;100681.90;1814257;79;25548;-63
2023/04/21 01:11:32;;;;;;;;;;;;;;;7.10;60.70;100680.86;1817052;79;27521;-63
2023/04/21 01:13:59;;;;;;;19.55;9.48;;;;;;;7.07;60.67;100679.26;1814321;79;25537;-63
2023/04/21 01:16:26;;;;;;;14.78;9.95;;;;;;;7.02;60.49;100684.66;1814185;79;25474;-63
2023/04/21 01:18:53;;;;;;;18.12;10.88;;;;;;;6.98;60.49;100679.55;1814156;79;25623;-63
2023/04/21 01:21:21;;;;;;;15.23;9.75;;;;;;;6.95;60.85;100684.13;1775260;80;25579;-63
2023/04/21 01:23:47;;;;;;;13.48;9.65;;;;;;;6.91;61.03;100681.19;1813884;79;27455;-63
2023/04/21 01:26:21;;;;;;;17.25;10.05;;;;;;;6.87;61.11;100675.55;1814095;79;26028;-63
2023/04/21 01:28:49;;;;;;;15.05;10.00;;;;;;;6.83;61.27;100682.57;1775225;80;25646;-63
2023/04/21 01:31:17;;;;;;;16.00;8.98;;;;;;;6.79;61.21;100689.56;1773928;80;26248;-63
2023/04/21 01:33:44;;;;;;;14.65;9.18;;;;;;;6.76;61.37;100679.89;1775285;80;25558;-63
2023/04/21 01:36:11;;;;;;;14.90;9.13;;;;;;;6.72;61.65;100682.33;1813268;79;28205;-63
2023/04/21 01:38:41;;;;;;;17.55;10.15;;;;;;;6.67;61.78;100680.45;1814100;79;27163;-63
2023/04/21 01:41:09;;;;;;;16.85;9.75;;;;;;;6.65;61.43;100683.95;1752880;80;25445;-63
2023/04/21 01:43:37;;;;;;;18.12;10.03;;;;;;;6.62;61.93;100680.47;1814033;79;26300;-63
2023/04/21 01:46:06;;;;;;;14.15;9.55;;;;;;;6.59;61.92;100674.31;1814303;79;25452;-62
2023/04/21 01:48:33;;;;;;;14.98;9.88;;;;;;;6.54;62.07;100680.50;1814441;79;27327;-62
2023/04/21 01:51:00;;;;;;;17.27;10.00;;;;;;;6.51;62.20;100681.03;1814180;79;25639;-62
2023/04/21 01:53:27;;;;;;;14.83;9.45;;;;;;;6.49;62.45;100681.85;1814209;79;25519;-62
2023/04/21 01:55:54;;;;;;;13.98;9.20;;;;;;;6.48;62.45;100681.57;1814156;79;25661;-62
2023/04/21 01:58:21;;;;;;;13.48;9.25;;;;;;;6.45;62.35;100684.00;1814198;79;25546;-62
2023/04/21 02:00:49;;;;;;;14.50;9.85;;;;;;;6.43;62.47;100690.19;1814193;79;27954;-62
2023/04/21 02:03:16;;;;;;;13.57;9.33;;;;;;;6.39;62.60;100679.73;1814362;79;25727;-62
2023/04/21 02:05:42;;;;;;;13.53;9.35;;;;;;;6.38;62.44;100682.14;1814205;79;25411;-62
2023/04/21 02:08:09;;;;;;;18.00;9.28;;;;;;;6.34;62.72;100672.47;1814118;79;25662;-62
2023/04/21 02:10:35;;;;;;;17.75;10.23;;;;;;;6.31;62.95;100676.49;1814274;79;25395;-62
2023/04/21 02:13:02;;;;;;;14.98;9.60;;;;;;;6.29;63.04;100673.27;1775182;80;27391;-62
2023/04/21 02:15:28;;;;;;;16.73;9.75;;;;;;;6.27;63.06;100671.95;1813896;79;25748;-62
2023/04/21 02:17:54;;;;;;;15.45;9.90;;;;;;;6.25;63.28;100676.25;1814197;79;25468;-62
2023/04/21 02:20:21;;;;;;;14.40;9.83;;;;;;;6.23;63.23;100670.34;1814173;79;27869;-62
2023/04/21 02:22:48;;;;;;;14.87;9.58;;;;;;;6.20;63.31;100676.25;1814177;79;25411;-62
2023/04/21 02:25:14;;;;;;;15.63;9.65;;;;;;;6.18;63.55;100678.41;1814137;79;27317;-62
2023/04/21 02:27:40;;;;;;;14.20;9.78;;;;;;;6.15;63.39;100678.40;1814054;79;25571;-62
2023/04/21 02:30:09;;;;;;;19.70;9.45;;;;;;;6.14;63.85;100687.52;1814036;79;25550;-62
2023/04/21 02:32:36;;;;;;;14.68;9.05;;;;;;;6.10;64.09;100677.61;1814289;79;26241;-62
2023/04/21 02:35:05;;;;;;;13.30;8.63;;;;;;;6.07;63.65;100681.63;1814178;79;25633;-62
2023/04/21 02:37:31;;;;;;;18.15;9.88;;;;;;;6.04;63.53;100678.67;1814420;79;27336;-62
2023/04/21 02:39:58;;;;;;;16.23;9.60;;;;;;;6.02;63.93;100680.28;1814055;79;25412;-62
2023/04/21 02:42:24;;;;;;;13.55;9.03;;;;;;;6.00;64.05;100674.92;1814131;79;25455;-62
2023/04/21 02:44:50;;;;;;;14.45;8.88;;;;;;;5.96;64.16;100674.66;1814123;79;25732;-61
2023/04/21 02:47:17;;;;;;;16.37;9.48;;;;;;;5.93;64.03;100670.58;1814164;79;25375;-61
2023/04/21 02:49:43;;;;;;;15.15;9.58;;;;;;;5.90;64.23;100670.31;1814058;79;27332;-62
2023/04/21 02:52:10;;;;;;;15.45;9.38;;;;;;;5.87;64.04;100671.64;1814026;79;25595;-62
2023/04/21 02:54:36;;;;;;;14.05;9.33;;;;;;;5.84;64.57;100672.72;1814165;79;25439;-62
2023/04/21 02:57:04;;;;;;;13.55;8.88;;;;;;;5.82;64.55;100672.19;1814084;79;27706;-62
2023/04/21 02:59:30;;;;;;;13.30;8.80;;;;;;;5.77;64.67;100665.75;1814175;79;25614;-62
2023/04/21 03:01:56;;;;;;;17.82;9.78;;;;;;;5.75;64.82;100664.39;1814165;79;27329;-62
2023/04/21 03:04:24;;;;;;;16.70;10.18;;;;;;;5.73;64.80;100667.89;1814032;78;25523;-62
2023/04/21 03:06:53;;;;;;;12.98;9.45;;;;;;;5.70;64.83;100670.55;1814260;79;25576;-62
2023/04/21 03:09:19;;;;;;;13.83;9.60;;;;;;;5.68;65.01;100667.34;1814059;79;26318;-62
2023/04/21 03:11:46;;;;;;;17.40;10.00;;;;;;;5.64;64.97;100662.25;1814191;79;25623;-62
2023/04/21 03:14:12;;;;;;;13.35;9.15;;;;;;;5.61;65.17;100660.09;1773813;80;27388;-62
2023/04/21 03:16:38;;;;;;;12.35;8.65;;;;;;;5.60;65.38;100665.17;1813819;79;25357;-63
2023/04/21 03:19:05;;;;;;;18.98;9.33;;;;;;;5.56;65.32;100660.87;1814113;79;25527;-63
2023/04/21 03:21:32;;;;;;;14.05;9.43;;;;;;;5.54;65.29;100665.71;1814077;79;25645;-63
2023/04/21 03:23:58;;;;;;;15.43;9.20;;;;;;;5.52;65.43;100662.50;1814183;78;25479;-63
2023/04/21 03:26:24;;;;;;;13.45;8.90;;;;;;;5.49;65.37;100659.00;1814156;79;27269;-63
2023/04/21 03:28:52;;;;;;;14.18;9.25;;;;;;;5.48;65.91;100669.99;1814057;79;25459;-63
2023/04/21 03:31:18;;;;;;;12.75;8.98;;;;;;;5.46;65.95;100672.14;1803806;78;25448;-62
2023/04/21 03:33:45;;;;;;;17.65;9.18;;;;;;;5.43;65.96;100676.14;1773058;80;25632;-62
2023/04/21 03:36:11;;;;;;;15.28;9.25;;;;;;;5.42;66.03;100675.34;1792964;79;25619;-62
2023/04/21 03:38:37;;;;;;;13.48;9.83;;;;;;;5.39;66.06;100681.23;1792998;80;27910;-62
2023/04/21 03:41:04;;;;;;;14.28;9.10;;;;;;;5.37;66.25;100675.34;1792936;80;27198;-62
2023/04/21 03:43:31;;;;;;;15.75;9.93;;;;;;;5.38;66.51;100680.16;1793070;80;25606;-62
2023/04/21 03:45:57;;;;;;;14.73;9.55;;;;;;;5.37;66.74;100673.99;1793057;79;35073;-62
2023/04/21 03:48:23;;;;;;;13.15;8.45;;;;;;;5.38;66.86;100678.81;1793055;80;25452;-62
2023/04/21 03:50:49;;;;;;;18.62;9.85;;;;;;;5.36;66.74;100684.47;1793096;80;27330;-62
2023/04/21 03:53:15;;;;;;;17.32;9.35;;;;;;;5.37;66.79;100690.09;1792936;80;25469;-62
2023/04/21 03:55:42;;;;;;;14.25;9.40;;;;;;;5.37;67.07;100691.43;1793078;80;25654;-62
2023/04/21 03:58:08;;;;;;;12.50;8.88;;;;;;;5.37;67.02;100687.95;1793006;80;25645;-62
2023/04/21 04:00:35;;;;;;;13.62;9.58;;;;;;;5.38;67.06;100693.05;1793083;80;25549;-62
2023/04/21 04:03:02;;;;;;;13.65;9.75;;;;;;;5.39;67.37;100694.65;1793008;80;27912;-62
2023/04/21 04:05:29;;;;;;;17.17;10.35;;;;;;;5.40;67.31;100697.62;1792969;80;25603;-63
2023/04/21 04:07:56;;;;;;;13.48;9.65;;;;;;;5.42;67.29;100694.13;1743168;82;25464;-63
2023/04/21 04:10:23;;;;;;;12.60;8.90;;;;;;;5.45;67.33;100691.98;1743001;81;25630;-63
2023/04/21 04:12:51;;;;;;;12.73;8.60;;;;;;;5.48;67.25;100694.14;1734298;82;25406;-63
2023/04/21 04:15:18;;;;;;;13.40;8.35;;;;;;;5.50;67.34;100698.19;1728323;82;28053;-63
2023/04/21 04:17:45;;;;;;;16.50;8.85;;;;;;;5.54;67.33;100703.28;1728355;82;25433;-63
2023/04/21 04:20:11;;;;;;;11.25;8.48;;;;;;;5.56;67.45;100700.34;1728598;82;25471;-63
2023/04/21 04:22:39;;;;;;;11.50;8.40;;;;;;;5.60;67.44;100710.28;1726113;82;25510;-64
2023/04/21 04:25:06;;;;;;;12.58;8.98;;;;;;;5.62;67.39;100703.31;1726333;82;25535;-63
2023/04/21 04:27:33;;;;;;;12.43;7.85;;;;;;;5.70;67.48;100701.97;1728054;83;27373;-63
2023/04/21 04:29:59;;;;;;;14.55;8.30;;;;;;;5.75;67.48;100700.63;1727925;82;27124;-64
2023/04/21 04:32:28;;;;;;;14.73;8.63;;;;;;;5.79;67.41;100704.41;1709196;82;25556;-63
2023/04/21 04:34:55;;;;;;;15.75;8.98;;;;;;;5.85;67.43;100704.67;1705146;84;25623;-63
2023/04/21 04:37:22;;;;;;;13.48;7.80;;;;;;;5.90;67.34;100704.67;1728315;83;25544;-63
2023/04/21 04:39:49;;;;;;;14.20;9.20;;;;;;;5.97;67.22;100710.61;1765827;80;27325;-63
2023/04/21 04:42:16;;;;;;;14.75;10.05;;;;;;;6.04;67.25;100710.89;1743183;81;25405;-63
2023/04/21 04:44:43;;;;;;;18.67;15.38;;;;;;;6.11;67.07;100711.42;1728265;82;25433;-62
2023/04/21 04:47:09;;;;;;;15.30;8.13;;;;;;;6.19;67.01;100712.78;1764421;81;25642;-63
2023/04/21 04:49:36;;;;;;;11.05;7.15;;;;;;;6.27;66.85;100710.36;1727966;83;25622;-62
2023/04/21 04:52:03;;;;;;;14.53;8.05;;;;;;;6.33;66.61;100713.84;1764626;81;29477;-64
2023/04/21 04:54:29;;;;;;;11.00;7.22;;;;;;;6.43;66.51;100721.09;1764937;80;25397;-65
2023/04/21 04:56:56;;;;;;;18.30;15.88;;;;;;;6.51;66.38;100719.20;1728280;83;25643;-65
2023/04/21 04:59:23;;;;;;;28.57;26.17;;;;;;;6.58;66.31;100715.70;1764662;81;25576;-64
2023/04/21 05:01:50;;;;;;;85.03;78.97;;;;;;;6.65;66.15;100710.04;1764987;81;25390;-64
2023/04/21 05:04:18;;;;;;;84.20;78.10;;;;;;;6.75;65.96;100718.63;1728324;82;28044;-65
2023/04/21 05:06:44;;;;;;;65.28;60.40;;;;;;;6.83;65.77;100715.39;1764306;81;25469;-65
2023/04/21 05:09:12;;;;;;;83.75;77.72;;;;;;;6.90;65.64;100707.28;1764943;81;27238;-64
2023/04/21 05:11:38;;;;;;;83.05;77.15;;;;;;;7.01;65.67;100709.94;1728200;83;25621;-64
2023/04/21 05:14:05;;;;;;;84.22;78.12;;;;;;;7.09;65.39;100715.55;1764612;81;25417;-64
2023/04/21 05:16:33;;;;;;;84.75;78.62;;;;;;;7.21;65.13;100719.82;1764996;81;27346;-63
2023/04/21 05:19:04;;;;;;;13.05;11.28;;;;;;;7.29;64.99;100711.17;1743772;81;25636;-64
2023/04/21 05:21:32;;;;;;;82.70;77.10;;;;;;;7.42;64.85;100715.13;1728269;83;25622;-59
2023/04/21 05:23:59;;;;;;;81.70;75.95;;;;;;;7.53;64.50;100714.01;1764372;81;25731;-61
2023/04/21 05:26:27;;;;;;;84.03;78.10;;;;;;;7.65;64.19;100715.02;1728256;83;25402;-62
2023/04/21 05:28:55;;;;;;;81.45;75.90;;;;;;;7.77;63.99;100714.67;1764643;81;27310;-63
2023/04/21 05:31:25;;;;;;;86.00;80.05;;;;;;;7.91;63.79;100710.25;1728055;82;25606;-62
2023/04/21 05:33:52;;;;;;;82.62;77.03;;;;;;;8.04;63.10;100707.48;1727895;83;25443;-62
2023/04/21 05:36:20;;;;;;;84.77;78.67;;;;;;;8.20;62.75;100710.29;1765044;81;25585;-63
2023/04/21 05:38:46;;;;;;;81.85;76.33;;;;;;;8.37;62.71;100708.53;1743466;81;25476;-63
2023/04/21 05:41:13;;;;;;;84.17;78.22;;;;;;;8.54;62.76;100709.47;1764901;81;27369;-64
2023/04/21 05:43:39;;;;;;;83.82;77.95;;;;;;;8.72;62.05;100705.27;1763394;80;25702;-64
2023/04/21 05:46:09;;;;;;;84.28;78.45;;;;;;;8.91;61.69;100711.27;1765097;80;25706;-63
2023/04/21 05:48:37;;;;;;;10.03;6.50;;;;;;;9.08;61.39;100706.20;1765059;80;25609;-64
2023/04/21 05:51:17;;;;;;;45.20;41.80;;;;;;;9.33;61.25;100711.00;1764140;81;25563;-64
2023/04/21 05:53:45;;;;;;;82.57;76.82;;;;;;;9.53;60.41;100713.98;1764747;81;27394;-63
2023/04/21 05:56:13;;;;;;;22.00;20.20;;;;;;;9.79;60.09;100723.06;1763981;81;25787;-62
2023/04/21 05:58:40;;;;;;;20.30;18.48;;;;;;;10.02;59.79;100716.77;1764581;81;25594;-64
2023/04/21 06:01:07;;;;;;;42.13;39.38;;;;;;;10.29;59.22;100721.47;1726325;83;25594;-62
2023/04/21 06:03:34;;;;;;;87.35;81.15;;;;;;;10.54;58.51;100711.87;1763695;81;25636;-63
2023/04/21 06:06:04;;;;;;;28.85;26.62;;;;;;;10.79;57.85;100710.61;1727532;83;27331;-63
2023/04/21 06:08:31;;;;;;;38.65;35.75;;;;;;;11.10;57.13;100714.06;1764190;80;25696;-64
2023/04/21 06:10:58;;;;;;;67.25;62.60;;;;;;;11.38;56.60;100713.48;1764205;81;25758;-63
2023/04/21 06:13:26;;;;;;;8.60;7.75;;;;;;;11.69;56.53;100707.39;1764238;81;27830;-62
2023/04/21 06:15:54;;;;;;;82.53;77.15;;;;;;;12.03;55.32;100714.22;1727740;83;25636;-63
2023/04/21 06:18:20;;;;;;;81.63;76.17;;;;;;;12.33;54.57;100713.45;1707396;84;27385;-62
2023/04/21 06:20:53;;;;;;;80.85;75.35;;;;;;;12.62;53.94;100713.53;1710954;83;25621;-63
2023/04/21 06:23:21;;;;;;;79.53;74.10;;;;;;;12.92;53.52;100714.36;1728359;82;25559;-63
2023/04/21 06:26:03;;;;;;;80.40;74.92;;;;;;;13.27;52.89;100710.62;1712076;83;25674;-63
2023/04/21 06:28:35;;;;;;;10.58;7.30;;;;;;;13.58;52.18;100707.01;1751384;80;25638;-63
2023/04/21 06:31:03;;;;;;;8.13;5.45;;;;;;;13.98;52.01;100701.41;1781527;80;27417;-63
2023/04/21 06:33:30;;;;;;;7.97;5.30;;;;;;;14.39;51.58;100706.06;1774645;79;25633;-63
2023/04/21 06:35:56;;;;;;;8.98;5.67;;;;;;;14.78;50.40;100706.09;1765973;81;25393;-64
2023/04/21 06:38:22;;;;;;;7.75;5.70;;;;;;;15.08;49.69;100697.38;1765857;81;25591;-64
2023/04/21 06:40:50;;;;;;;9.50;6.10;;;;;;;15.48;49.13;100703.79;1715994;83;25542;-63
2023/04/21 06:43:16;;;;;;;6.33;5.20;;;;;;;15.84;48.76;100700.47;1700587;84;27402;-64
2023/04/21 06:45:42;;;;;;;8.33;5.95;;;;;;;16.24;48.22;100703.21;1700500;83;27231;-64
2023/04/21 06:48:08;;;;;;;10.05;5.87;;;;;;;16.62;46.87;100699.44;1718039;82;25635;-65
2023/04/21 06:50:34;;;;;;;11.03;6.35;;;;;;;16.95;46.13;100702.66;1700523;84;26290;-65
2023/04/21 06:53:01;;;;;;;10.20;5.28;;;;;;;17.28;45.48;100696.23;1700750;83;25494;-65
2023/04/21 06:55:27;;;;;;;9.30;5.72;;;;;;;17.57;44.57;100700.64;1717344;82;28265;-63
2023/04/21 06:57:54;;;;;;;7.75;4.67;;;;;;;17.95;44.56;100700.75;1705987;83;25566;-64
2023/04/21 07:00:21;;;;;;;8.15;4.92;;;;;;;18.39;43.51;100696.62;1700725;84;25684;-64
2023/04/21 07:02:47;;;;;;;8.10;5.10;;;;;;;18.75;42.58;100700.25;1700664;84;26220;-64
2023/04/21 07:05:13;;;;;;;10.53;5.10;;;;;;;19.10;41.48;100702.84;1700708;84;25583;-64
2023/04/21 07:07:40;;;;;;;6.25;4.80;;;;;;;19.36;40.95;100698.94;1742971;81;27300;-64
2023/04/21 07:10:08;;;;;;;7.92;5.17;;;;;;;19.68;40.20;100702.94;1715706;83;25573;-64
2023/04/21 07:12:34;;;;;;;7.72;4.90;;;;;;;20.02;39.40;100702.43;1700586;83;25642;-64
2023/04/21 07:15:00;;;;;;;8.03;4.62;;;;;;;20.36;38.79;100703.44;1714813;82;26352;-64
2023/04/21 07:17:26;;;;;;;6.37;5.03;;;;;;;20.65;38.41;100697.91;1722854;82;25462;-64
2023/04/21 07:19:53;;;;;;;6.70;5.10;;;;;;;21.03;37.97;100701.63;1744500;80;27380;-64
2023/04/21 07:22:19;;;;;;;9.28;4.72;;;;;;;21.38;37.06;100696.98;1722557;82;27156;-64
2023/04/21 07:24:46;;;;;;;8.43;5.20;;;;;;;21.67;36.38;100698.16;1709019;84;25422;-64
2023/04/21 07:27:13;;;;;;;6.92;4.83;;;;;;;21.86;36.07;100697.80;1700418;84;25590;-64
2023/04/21 07:29:39;;;;;;;6.97;4.22;;;;;;;22.21;35.25;100694.63;1712022;83;25584;-64
2023/04/21 07:32:05;;;;;;;8.90;4.58;;;;;;;22.46;35.37;100705.11;1741068;80;27962;-63
2023/04/21 07:34:32;;;;;;;7.08;4.45;;;;;;;22.72;34.62;100703.56;1775289;80;25612;-64
2023/04/21 07:36:58;;;;;;;8.98;4.50;;;;;;;23.03;34.19;100707.53;1775331;80;25570;-58
2023/04/21 07:39:25;;;;;;;8.03;5.17;;;;;;;23.31;33.34;100698.08;1775273;80;25623;-59
2023/04/21 07:41:52;;;;;;;6.30;4.10;;;;;;;23.60;33.04;100698.78;1774909;80;25700;-59
2023/04/21 07:44:19;;;;;;;6.92;4.30;;;;;;;23.83;31.99;100692.98;1774580;80;27363;-59
2023/04/21 07:46:45;;;;;;;7.53;4.35;;;;;;;24.08;31.91;100693.66;1775237;80;25636;-58
2023/04/21 07:49:12;;;;;;;6.70;4.08;;;;;;;24.41;31.45;100691.11;1775342;80;25494;-55
2023/04/21 07:51:39;;;;;;;5.55;3.72;;;;;;;24.71;30.93;100693.52;1775232;80;25676;-59
2023/04/21 07:54:05;;;;;;;5.83;3.87;;;;;;;24.89;30.39;100686.59;1775357;80;25393;-59
2023/04/21 07:56:31;;;;;;;6.37;4.03;;;;;;;25.23;29.98;100685.31;1775273;80;27329;-59
2023/04/21 07:58:57;;;;;;;7.28;3.90;;;;;;;25.47;29.06;100684.48;1753634;80;25701;-58
2023/04/21 08:01:23;;;;;;;6.78;4.03;;;;;;;25.60;28.57;100679.27;1775353;80;25547;-58
2023/04/21 08:03:50;;;;;;;7.97;4.35;;;;;;;25.70;28.70;100680.41;1775266;80;26336;-60
2023/04/21 08:06:16;;;;;;;4.55;4.15;;;;;;;25.89;28.24;100679.91;1775302;80;25567;-57
2023/04/21 08:08:43;;;;;;;6.42;3.83;;;;;;;26.00;27.69;100677.69;1775344;80;27313;-58
2023/04/21 08:11:09;;;;;;;4.53;3.70;;;;;;;26.16;27.56;100673.83;1775195;80;25674;-58
2023/04/21 08:13:36;;;;;;;6.92;3.87;;;;;;;26.43;27.43;100680.17;1775329;80;25569;-58
2023/04/21 08:16:03;;;;;;;7.67;3.80;;;;;;;26.76;27.15;100672.38;1775292;80;25684;-58
2023/04/21 08:18:30;;;;;;;3.85;3.52;;;;;;;27.04;26.43;100664.37;1775308;80;25586;-59
2023/04/21 08:20:57;;;;;;;5.65;3.60;;;;;;;27.15;26.06;100672.56;1775306;80;27249;-59
2023/04/21 08:23:24;;;;;;;4.60;3.45;;;;;;;27.35;25.37;100672.77;1775240;80;25389;-59
2023/04/21 08:25:50;;;;;;;4.00;3.60;;;;;;;27.33;24.72;100671.80;1775324;80;25477;-58
2023/04/21 08:28:16;;;;;;;5.90;3.30;;;;;;;27.39;25.14;100674.89;1775241;80;25578;-58
2023/04/21 08:30:42;;;;;;;4.75;3.50;;;;;;;27.54;24.93;100661.00;1775289;80;25617;-58
2023/04/21 08:33:12;;;;;;;5.10;3.25;;;;;;;27.65;24.42;100671.99;1773881;80;27325;-58
2023/04/21 08:35:36;;;;;;;4.78;3.58;;;;;;;27.88;24.78;100671.88;1772571;80;25372;-59
2023/04/21 08:38:03;;;;;;;4.78;3.35;;;;;;;28.18;24.36;100660.52;1774122;80;25393;-59
2023/04/21 08:40:37;;;;;;;3.70;3.02;;;;;;;28.38;23.71;100660.59;1775259;80;25620;-59
2023/04/21 08:43:06;;;;;;;3.80;3.10;;;;;;;28.31;21.47;100653.94;1775370;80;25611;-59
2023/04/21 08:45:35;;;;;;;5.42;3.62;;;;;;;27.75;22.01;100659.94;1775399;80;27362;-58
2023/04/21 08:48:06;;;;;;;5.22;3.40;;;;;;;27.82;22.40;100660.45;1775292;80;25664;-59
2023/04/21 08:50:34;;;;;;;4.33;3.12;;;;;;;27.98;22.72;100663.23;1775286;80;25397;-59
2023/04/21 08:53:01;;;;;;;4.37;3.45;;;;;;;28.03;22.55;100659.36;1775373;80;26132;-59
2023/04/21 08:55:32;;;;;;;4.08;3.30;;;;;;;28.18;22.02;100657.16;1775282;80;25414;-59
2023/04/21 08:57:58;;;;;;;5.12;3.40;;;;;;;28.15;21.93;100660.77;1775284;80;28112;-58
2023/04/21 09:00:25;;;;;;;5.03;3.00;;;;;;;28.24;21.31;100654.67;1775193;80;25393;-59
2023/04/21 09:02:55;;;;;;;4.17;3.00;;;;;;;28.38;21.72;100659.20;1775259;80;25577;-59
2023/04/21 09:05:25;;;;;;;5.53;2.75;;;;;;;28.69;21.46;100650.95;1775279;80;27753;-59
2023/04/21 09:07:57;;;;;;;3.25;2.95;;;;;;;28.55;20.77;100648.41;1775322;80;25369;-58
2023/04/21 09:10:25;;;;;;;3.20;2.60;;;;;;;28.61;20.01;100651.50;1771587;80;29523;-60
2023/04/21 09:12:54;;;;;;;3.75;2.95;;;;;;;28.50;19.42;100639.93;1775295;80;25984;-59
2023/04/21 09:15:21;;;;;;;3.10;2.47;;;;;;;28.66;20.64;100636.48;1775294;80;25512;-59
2023/04/21 09:17:53;;;;;;;5.28;3.10;;;;;;;29.05;20.20;100648.09;1775212;80;25627;-59
2023/04/21 09:20:22;;;;;;;4.53;2.77;;;;;;;28.91;19.72;100644.96;1775175;80;25568;-58
2023/04/21 09:22:50;;;;;;;3.87;3.05;;;;;;;28.59;19.12;100636.63;1775385;80;27334;-58
2023/04/21 09:25:20;;;;;;;3.52;2.98;;;;;;;28.66;19.24;100645.45;1775301;80;25758;-59
2023/04/21 09:27:47;;;;;;;3.22;2.83;;;;;;;28.68;19.46;100637.45;1775258;80;25582;-59
2023/04/21 09:30:18;;;;;;;3.85;2.70;;;;;;;28.68;19.25;100636.06;1775174;80;25693;-58
2023/04/21 09:32:44;;;;;;;4.30;3.00;;;;;;;28.54;19.22;100626.54;1774692;80;25440;-58
2023/04/21 09:35:11;;;;;;;5.97;3.00;;;;;;;28.69;19.34;100627.30;1775257;80;27393;-57
2023/04/21 09:37:43;;;;;;;3.47;2.65;;;;;;;28.90;18.99;100632.89;1775176;80;25624;-57
2023/04/21 09:40:17;;;;;;;5.67;3.08;;;;;;;28.88;18.38;100624.34;1742518;82;25634;-56
2023/04/21 09:42:43;;;;;;;4.47;3.08;;;;;;;28.92;19.14;100627.06;1775190;80;27743;-53
2023/04/21 09:45:12;;;;;;;3.30;3.00;;;;;;;29.01;18.78;100633.44;1775263;80;25634;-56
2023/04/21 09:47:42;;;;;;;3.17;2.85;;;;;;;29.19;19.15;100631.73;1775219;80;27395;-54
2023/04/21 09:50:12;;;;;;;4.22;2.62;;;;;;;29.43;19.05;100633.19;1775132;80;25508;-54
2023/04/21 09:52:39;;;;;;;5.45;2.83;;;;;;;29.62;18.87;100625.23;1775268;80;25456;-52
2023/04/21 09:55:13;;;;;;;5.15;3.05;;;;;;;29.76;18.96;100611.57;1775195;80;25613;-54
2023/04/21 09:57:42;;;;;;;3.27;2.92;;;;;;;30.00;18.97;100613.62;1775206;80;25408;-52
2023/04/21 10:00:12;;;;;;;4.87;2.83;;;;;;;30.18;18.30;100613.96;1775239;80;27400;-53
2023/04/21 10:02:49;;;;;;;8.68;3.95;;;;;;;30.12;17.26;100604.58;1785830;80;25642;-55
2023/04/21 10:05:16;;;;;;;5.62;3.92;;;;;;;30.04;18.30;100603.17;1792017;79;25370;-51
2023/04/21 10:07:45;;;;;;;5.65;2.90;;;;;;;30.15;18.20;100607.89;1797138;79;25688;-53
2023/04/21 10:10:27;;;;;;;3.87;2.77;;;;;;;30.15;17.83;100600.11;1814228;79;25622;-53
2023/04/21 10:12:55;;;;;;;4.35;2.98;;;;;;;30.18;18.29;100595.83;1814217;79;28029;-55
2023/04/21 10:15:39;;;;;;;5.55;2.90;;;;;;;30.10;18.08;100586.08;1814102;79;25557;-55
2023/04/21 10:18:22;;;;;;;2.92;2.40;;;;;;;29.97;18.17;100589.41;1814167;79;25565;-53
2023/04/21 10:21:06;;;;;;;3.65;2.95;;;;;;;30.03;17.78;100586.26;1814136;79;25684;-54
2023/04/21 10:23:45;;;;;;;5.12;3.10;;;;;;;30.10;17.76;100581.11;1814065;78;25377;-54
2023/04/21 10:26:33;;;;;;;3.42;2.90;;;;;;;30.07;17.87;100577.21;1814227;79;27956;-54
2023/04/21 10:29:06;;;;;;;3.25;2.75;;;;;;;30.15;17.85;100578.60;1814371;79;25531;-56
2023/04/21 10:31:37;;;;;;;6.15;2.77;;;;;;;30.29;17.61;100565.48;1814139;79;25544;-53
2023/04/21 10:34:11;;;;;;;4.62;2.80;;;;;;;30.25;17.80;100575.34;1799796;79;25543;-51
2023/04/21 10:36:58;;;;;;;3.00;2.72;;;;;;;30.37;17.59;100568.29;1793040;80;25471;-52
2023/04/21 10:39:41;;;;;;;3.83;2.60;;;;;;;30.33;17.51;100576.73;1679197;85;27413;-53
2023/04/21 10:42:21;;;;;;;5.83;2.80;;;;;;;30.44;17.64;100562.52;1698690;83;25600;-52
2023/04/21 10:45:01;;;;;;;4.40;2.72;;;;;;;30.76;17.15;100558.06;1698671;84;25653;-54
2023/04/21 10:47:40;;;;;;;8.23;5.67;;;;;;;31.06;17.50;100557.44;1698680;84;25812;-56
2023/04/21 10:50:25;;;;;;;8.68;4.08;;;;;;;31.06;17.50;100557.44;1698679;84;25672;-57
2023/04/21 10:53:03;;;;;;;5.80;3.35;;;;;;;31.24;17.28;100552.08;1697913;84;27335;-58
2023/04/21 10:55:35;;;;;;;3.65;2.77;;;;;;;31.52;17.59;100546.07;1698593;84;25692;-57
2023/04/21 10:58:14;;;;;;;6.03;3.15;;;;;;;31.72;17.07;100558.42;1698681;84;25536;-55
2023/04/21 11:00:40;;;;;;;5.55;3.17;;;;;;;31.62;16.97;100550.56;1698658;84;25634;-57
2023/04/21 11:03:10;;;;;;;5.47;3.45;;;;;;;31.62;16.97;100550.56;1698518;84;25503;-57
2023/04/21 11:05:40;;;;;;;3.47;2.60;;;;;;;31.58;16.95;100540.88;1698575;84;27395;-55
2023/04/21 11:08:14;;;;;;;4.22;2.70;;;;;;;31.54;16.74;100542.23;1698469;84;25570;-57
2023/04/21 11:10:53;;;;;;;3.70;3.15;;;;;;;31.53;16.85;100543.45;1698579;84;25677;-56
2023/04/21 11:13:25;;;;;;;3.92;3.52;;;;;;;31.64;16.99;100535.52;1698589;84;25868;-56
2023/04/21 11:16:02;;;;;;;3.47;3.17;;;;;;;31.94;17.07;100522.94;1767745;80;25428;-56
2023/04/21 11:18:42;;;;;;;4.47;3.08;;;;;;;31.96;16.87;100516.87;1736804;82;27343;-56
2023/04/21 11:21:21;;;;;;;3.40;2.85;;;;;;;31.85;16.49;100520.03;1736828;82;25707;-56
2023/04/21 11:23:56;;;;;;;6.47;2.95;;;;;;;31.75;16.60;100511.39;1733277;82;25607;-53
2023/04/21 11:26:37;;;;;;;3.35;2.70;;;;;;;31.64;16.61;100517.34;1736888;82;25604;-56
2023/04/21 11:29:10;;;;;;;5.50;2.80;;;;;;;31.56;16.34;100522.38;1736934;82;25457;-56